Time;durP1;ratioP1;P1;durP2;ratioP2;P2;SDS_P1;SDS_P2;PMS_P1;PMS_P2;Temp;Humidity;BMP_temperature;BMP_pressure;BME280_temperature;BME280_humidity;BME280_pressure;Samples;Min_cycle;Max_cycle;Signal;HPM_P1;HPM_P2
2021/12/25 00:02:07;;;;;;;21.80;15.13;;;;;;;3.40;82.37;97895.31;4971334;28;20352;-67
2021/12/25 00:04:33;;;;;;;20.95;14.88;;;;;;;3.46;82.61;97892.28;4957526;28;20150;-68
2021/12/25 00:06:58;;;;;;;20.08;13.77;;;;;;;3.50;82.42;97895.44;4973013;28;20023;-68
2021/12/25 00:09:25;;;;;;;21.38;15.20;;;;;;;3.50;82.64;97900.56;4932020;28;20057;-68
2021/12/25 00:11:50;;;;;;;22.90;14.70;;;;;;;3.46;81.81;97896.63;4960743;28;20430;-67
2021/12/25 00:14:16;;;;;;;21.95;15.23;;;;;;;3.16;81.52;97840.66;4950842;28;20053;-68
2021/12/25 00:16:41;;;;;;;21.02;13.77;;;;;;;3.57;81.16;97886.31;4972631;28;20130;-69
2021/12/25 00:19:07;;;;;;;23.48;14.77;;;;;;;3.69;81.15;97883.72;4961263;28;20089;-68
2021/12/25 00:21:32;;;;;;;23.65;15.38;;;;;;;3.25;81.85;97835.66;4944421;28;20426;-68
2021/12/25 00:23:58;;;;;;;23.13;15.30;;;;;;;3.53;81.97;97872.06;4957437;28;20089;-68
2021/12/25 00:26:53;;;;;;;20.25;14.55;;;;;;;3.60;80.79;97869.84;4940192;28;20034;-67
2021/12/25 00:30:08;;;;;;;20.58;14.35;;;;;;;3.55;81.20;97877.09;4943100;28;20042;-68
2021/12/25 00:32:30;;;;;;;19.92;14.18;;;;;;;3.18;80.74;97802.84;4957488;28;20035;-68
2021/12/25 00:34:55;;;;;;;20.95;14.57;;;;;;;3.56;80.43;97858.16;4955531;28;20036;-67
2021/12/25 00:37:21;;;;;;;20.60;14.05;;;;;;;3.56;81.16;97858.16;4959749;28;20405;-69
2021/12/25 00:39:46;;;;;;;21.10;15.10;;;;;;;3.45;81.06;97839.25;4960885;28;20057;-68
2021/12/25 00:42:12;;;;;;;20.67;14.55;;;;;;;3.53;80.36;97853.28;4975579;28;20041;-67
2021/12/25 00:44:38;;;;;;;22.33;15.43;;;;;;;3.61;80.20;97854.31;4956350;28;20439;-68
2021/12/25 00:47:04;;;;;;;23.45;16.05;;;;;;;3.56;79.85;97851.28;4973840;28;20042;-69
2021/12/25 00:49:30;;;;;;;20.20;14.18;;;;;;;3.52;80.93;97844.72;4970942;28;20173;-69
2021/12/25 00:51:56;;;;;;;22.85;15.15;;;;;;;3.57;80.62;97845.19;4957080;28;20577;-69
2021/12/25 00:54:22;;;;;;;21.02;13.95;;;;;;;3.55;79.83;97839.34;4956374;28;20058;-68
2021/12/25 00:56:47;;;;;;;20.33;13.18;;;;;;;3.62;79.53;97847.41;4938544;28;20023;-69
2021/12/25 00:59:13;;;;;;;23.13;13.98;;;;;;;3.54;79.21;97850.59;4957469;28;20842;-69
2021/12/25 01:01:38;;;;;;;21.27;14.25;;;;;;;3.50;79.17;97830.38;4914844;28;20049;-69
2021/12/25 01:04:04;;;;;;;19.63;13.82;;;;;;;3.27;79.23;97795.22;4952979;28;20032;-68
2021/12/25 01:06:30;;;;;;;17.48;13.23;;;;;;;3.41;79.55;97806.19;4944714;28;20127;-68
2021/12/25 01:08:55;;;;;;;20.27;13.90;;;;;;;3.64;79.61;97855.81;4957422;28;20581;-69
2021/12/25 01:11:23;;;;;;;19.30;13.63;;;;;;;3.73;80.20;97851.72;4952244;28;20050;-70
2021/12/25 01:13:56;;;;;;;21.52;14.07;;;;;;;3.80;79.37;97847.72;4939525;28;20033;-68
2021/12/25 01:49:52;;;;;;;20.67;15.27;;;;;;;3.57;80.85;97883.75;4965289;28;20053;-68
2021/12/25 01:52:24;;;;;;;20.13;14.80;;;;;;;3.34;81.40;97839.28;4972668;28;20038;-69
2021/12/25 01:54:50;;;;;;;20.30;13.73;;;;;;;3.41;81.24;97834.47;4962675;28;20053;-69
2021/12/25 01:57:16;;;;;;;20.38;14.45;;;;;;;3.49;81.15;97850.13;4939953;28;20215;-69
2021/12/25 01:59:41;;;;;;;22.55;14.45;;;;;;;3.74;81.18;97879.06;4956250;28;20037;-69
2021/12/25 02:02:07;;;;;;;20.90;15.60;;;;;;;3.46;80.78;97835.72;4957467;28;20506;-70
2021/12/25 02:04:32;;;;;;;20.60;14.88;;;;;;;3.76;80.54;97878.00;4960559;28;20045;-67
2021/12/25 02:06:58;;;;;;;19.35;14.88;;;;;;;3.77;80.78;97865.97;4962868;28;20023;-68
2021/12/25 02:09:23;;;;;;;21.45;14.93;;;;;;;3.83;80.96;97886.88;4959704;28;20038;-70
2021/12/25 02:11:50;;;;;;;19.95;14.68;;;;;;;3.50;81.93;97880.00;4943087;28;20066;-69
2021/12/25 02:14:15;;;;;;;20.90;15.15;;;;;;;3.71;81.61;97879.31;4957407;28;20064;-68
2021/12/25 02:16:58;;;;;;;19.15;14.25;;;;;;;3.72;81.72;97888.63;4955516;28;20042;-69
2021/12/25 02:19:43;;;;;;;19.30;14.20;;;;;;;3.78;81.48;97888.19;4974267;28;20081;-68
2021/12/25 02:22:09;;;;;;;19.50;15.15;;;;;;;3.65;82.03;97881.41;4960725;28;20394;-70
2021/12/25 02:24:36;;;;;;;20.55;14.65;;;;;;;3.73;81.22;97887.72;4958356;28;20117;-69
2021/12/25 02:27:03;;;;;;;23.20;14.95;;;;;;;3.68;81.51;97879.53;4950956;28;20027;-68
2021/12/25 02:29:28;;;;;;;22.98;15.07;;;;;;;3.70;81.26;97896.47;4956200;28;20035;-69
2021/12/25 02:31:54;;;;;;;20.60;15.73;;;;;;;3.71;81.76;97880.13;4969470;28;20093;-66
2021/12/25 02:34:20;;;;;;;22.92;15.70;;;;;;;3.72;81.88;97878.34;4940402;28;20138;-68
2021/12/25 02:36:45;;;;;;;20.90;15.73;;;;;;;3.69;81.88;97876.84;4974277;28;20042;-69
2021/12/25 02:39:11;;;;;;;21.63;15.80;;;;;;;3.63;81.91;97857.59;4959624;28;20110;-70
2021/12/25 02:41:36;;;;;;;21.10;15.63;;;;;;;3.37;82.07;97810.75;4951451;28;20041;-69
2021/12/25 02:44:02;;;;;;;21.70;16.38;;;;;;;3.68;81.59;97857.22;4974723;28;20371;-67
2021/12/25 02:46:28;;;;;;;21.98;15.77;;;;;;;3.74;81.70;97855.91;4974595;28;20031;-69
2021/12/25 02:48:56;;;;;;;24.17;16.50;;;;;;;3.67;81.06;97847.88;4946321;28;20065;-70
2021/12/25 02:51:21;;;;;;;23.83;16.48;;;;;;;3.50;81.94;97853.50;4978194;28;20764;-70
2021/12/25 02:53:47;;;;;;;22.17;16.02;;;;;;;3.58;81.66;97846.84;4960544;28;20375;-69
2021/12/25 02:56:12;;;;;;;21.45;15.15;;;;;;;3.57;82.20;97841.81;4958991;28;20043;-68
2021/12/25 02:58:38;;;;;;;21.80;15.25;;;;;;;3.42;81.93;97806.06;4964660;28;20034;-69
2021/12/25 03:01:18;;;;;;;20.33;15.07;;;;;;;3.75;82.71;97834.41;4957191;28;20407;-69
2021/12/25 03:03:44;;;;;;;21.33;14.95;;;;;;;3.75;82.90;97837.78;4958862;28;20449;-68
2021/12/25 03:06:10;;;;;;;21.98;15.60;;;;;;;3.47;83.00;97792.88;4957186;28;20049;-68
2021/12/25 03:08:36;;;;;;;20.80;15.57;;;;;;;3.53;82.68;97805.25;4960495;28;20089;-67
2021/12/25 03:11:06;;;;;;;23.13;16.17;;;;;;;3.75;82.43;97848.06;4976107;28;20568;-69
2021/12/25 03:15:58;;;;;;;23.23;14.93;;;;;;;3.80;82.32;97861.41;4961235;28;20061;-68
2021/12/25 03:18:34;;;;;;;22.00;15.57;;;;;;;3.82;82.18;97854.38;4962039;28;20065;-69
2021/12/25 03:21:02;;;;;;;20.80;15.10;;;;;;;3.79;82.48;97858.94;4959522;28;20049;-70
2021/12/25 03:23:29;;;;;;;20.90;15.45;;;;;;;3.80;82.04;97853.69;4964045;28;20097;-69
2021/12/25 03:25:56;;;;;;;20.65;15.45;;;;;;;3.87;82.27;97848.03;4972625;28;20053;-68
2021/12/25 03:28:23;;;;;;;21.02;14.90;;;;;;;3.88;82.48;97836.84;4961465;28;20031;-68
2021/12/25 03:30:50;;;;;;;18.90;14.57;;;;;;;3.81;81.67;97816.72;4963212;28;20045;-69
2021/12/25 03:33:17;;;;;;;20.50;15.07;;;;;;;3.85;81.27;97827.59;4972244;28;20030;-67
2021/12/25 03:35:43;;;;;;;19.83;14.05;;;;;;;3.91;81.23;97828.88;4958211;28;20118;-70
2021/12/25 03:38:11;;;;;;;20.23;14.48;;;;;;;3.91;82.03;97823.75;4974776;28;20186;-69
2021/12/25 03:40:37;;;;;;;21.65;14.73;;;;;;;3.88;82.30;97801.63;4961503;28;20031;-66
2021/12/25 03:43:03;;;;;;;20.00;14.52;;;;;;;3.93;82.21;97802.09;4971527;28;20027;-69
2021/12/25 03:45:31;;;;;;;20.00;14.68;;;;;;;4.02;82.26;97798.78;4962252;28;20422;-69
2021/12/25 03:48:15;;;;;;;20.70;14.50;;;;;;;4.02;81.17;97795.41;4956368;28;20110;-69
2021/12/25 03:57:37;;;;;;;20.75;14.23;;;;;;;4.00;82.03;97797.28;4961496;28;20662;-68
2021/12/25 03:59:09;;;;;;;19.45;14.40;;;;;;;3.59;82.83;97749.94;4972124;28;20049;-69
2021/12/25 04:06:34;;;;;;;19.30;14.43;;;;;;;3.90;82.84;97796.38;4971889;28;20049;-69
2021/12/25 04:09:02;;;;;;;21.27;14.73;;;;;;;3.63;82.42;97739.31;4959136;28;20038;-67
2021/12/25 04:11:31;;;;;;;17.73;13.55;;;;;;;3.93;82.94;97780.72;4977415;28;20058;-69
2021/12/25 04:13:57;;;;;;;17.88;13.18;;;;;;;3.89;82.00;97781.88;4975190;28;20065;-68
2021/12/25 04:16:23;;;;;;;17.77;13.18;;;;;;;3.92;82.35;97773.91;4957638;28;20584;-67
2021/12/25 04:18:49;;;;;;;21.38;13.57;;;;;;;3.73;82.32;97741.97;4978079;28;20031;-70
2021/12/25 04:21:14;;;;;;;18.65;13.65;;;;;;;3.83;81.92;97758.31;4959719;28;20039;-69
2021/12/25 04:23:42;;;;;;;22.60;14.40;;;;;;;3.90;81.00;97753.47;4961121;28;20038;-67
2021/12/25 04:26:08;;;;;;;18.85;12.77;;;;;;;4.02;80.35;97764.53;4960373;28;20808;-69
2021/12/25 04:31:49;;;;;;;20.88;13.65;;;;;;;3.91;81.70;97765.38;4946189;28;20534;-69
2021/12/25 05:04:12;;;;;;;18.77;13.27;;;;;;;3.68;82.95;97735.56;4955340;28;20053;-69
2021/12/25 05:06:38;;;;;;;17.73;13.80;;;;;;;3.95;83.67;97781.41;4958825;28;20542;-69
2021/12/25 05:09:03;;;;;;;20.40;14.20;;;;;;;3.98;83.79;97781.13;4957597;28;20034;-69
2021/12/25 05:11:29;;;;;;;19.25;14.10;;;;;;;3.76;83.41;97726.28;4953991;28;20124;-68
2021/12/25 05:13:54;;;;;;;17.60;13.27;;;;;;;3.64;83.75;97722.13;4954276;28;20038;-66
2021/12/25 05:16:21;;;;;;;18.55;13.32;;;;;;;3.90;83.16;97752.66;4956070;28;20163;-68
2021/12/25 05:18:47;;;;;;;19.05;13.48;;;;;;;3.94;83.76;97767.72;4943287;28;20141;-69
2021/12/25 05:21:13;;;;;;;20.17;13.63;;;;;;;3.96;83.07;97770.16;4958028;28;20069;-68
2021/12/25 05:23:39;;;;;;;18.90;13.70;;;;;;;3.76;82.92;97728.88;4974318;28;20033;-69
2021/12/25 05:26:05;;;;;;;19.25;13.07;;;;;;;4.03;82.80;97779.84;4956378;28;20042;-69
2021/12/25 05:28:39;;;;;;;18.85;13.05;;;;;;;4.16;82.04;97782.25;4939709;28;20035;-69
2021/12/25 05:31:06;;;;;;;19.23;12.90;;;;;;;4.08;82.61;97784.59;4958954;28;20093;-69
2021/12/25 05:33:32;;;;;;;19.13;12.90;;;;;;;4.14;82.67;97778.16;4955519;28;20673;-69
2021/12/25 05:35:57;;;;;;;18.48;12.60;;;;;;;4.17;82.29;97775.31;4953203;28;20019;-68
2021/12/25 05:38:23;;;;;;;18.98;13.15;;;;;;;3.90;81.74;97755.22;4961003;28;20466;-67
2021/12/25 05:40:48;;;;;;;16.90;12.43;;;;;;;3.89;81.89;97748.44;4957048;28;20089;-69
2021/12/25 05:43:14;;;;;;;18.10;12.57;;;;;;;4.17;82.49;97785.63;4959239;28;20123;-69
2021/12/25 05:45:40;;;;;;;15.77;12.10;;;;;;;4.22;81.77;97778.34;4953362;28;20081;-68
2021/12/25 05:48:05;;;;;;;17.75;12.80;;;;;;;4.29;81.77;97786.38;4954102;28;20935;-68
2021/12/25 05:50:31;;;;;;;16.52;12.05;;;;;;;4.16;82.04;97756.50;4957698;28;20035;-68
2021/12/25 05:52:57;;;;;;;19.55;13.20;;;;;;;4.36;81.45;97787.50;4973524;28;20038;-68
2021/12/25 05:55:24;;;;;;;17.42;12.68;;;;;;;3.95;81.28;97722.22;4956908;28;20037;-67
2021/12/25 05:57:49;;;;;;;19.30;12.65;;;;;;;4.39;81.01;97776.97;4959684;28;20031;-69
2021/12/25 06:00:15;;;;;;;18.33;12.05;;;;;;;4.34;80.72;97759.31;4957590;28;20486;-69
2021/12/25 06:02:40;;;;;;;17.10;11.55;;;;;;;4.42;80.11;97774.94;4958250;28;20027;-68
2021/12/25 06:05:06;;;;;;;16.27;12.05;;;;;;;4.19;79.51;97730.50;4960026;28;20485;-68
2021/12/25 06:07:32;;;;;;;16.70;11.65;;;;;;;4.48;80.15;97783.13;4954809;28;20035;-70
2021/12/25 06:09:57;;;;;;;16.63;12.23;;;;;;;4.43;80.12;97768.88;4960783;28;20038;-69
2021/12/25 06:12:24;;;;;;;15.73;11.75;;;;;;;4.37;80.59;97765.97;4957163;28;20520;-68
2021/12/25 06:14:49;;;;;;;18.70;12.73;;;;;;;4.01;81.23;97714.81;4974059;28;20081;-68
2021/12/25 06:17:17;;;;;;;18.10;11.70;;;;;;;4.41;80.36;97769.94;4975767;28;20569;-69
2021/12/25 06:19:42;;;;;;;15.07;11.07;;;;;;;4.49;79.94;97766.72;4963861;28;20031;-69
2021/12/25 06:22:07;;;;;;;16.75;11.43;;;;;;;4.49;79.81;97770.13;4971656;28;20141;-68
2021/12/25 06:24:33;;;;;;;14.75;10.68;;;;;;;4.45;80.07;97775.63;4961397;28;20046;-68
2021/12/25 06:26:58;;;;;;;14.80;10.95;;;;;;;4.43;80.33;97776.59;4963590;28;20033;-68
2021/12/25 06:29:24;;;;;;;17.60;11.57;;;;;;;4.32;80.66;97774.06;4961942;28;20027;-69
2021/12/25 06:31:50;;;;;;;17.42;11.60;;;;;;;4.34;80.06;97776.53;4958693;28;20031;-69
2021/12/25 06:34:16;;;;;;;17.05;11.68;;;;;;;4.34;80.64;97776.53;4959824;28;20450;-68
2021/12/25 06:36:42;;;;;;;16.85;11.55;;;;;;;4.40;80.23;97776.03;4959328;28;20643;-68
2021/12/25 06:39:11;;;;;;;16.00;11.52;;;;;;;4.21;80.31;97750.97;4963722;28;20033;-68
2021/12/25 06:41:37;;;;;;;17.48;12.20;;;;;;;4.34;80.91;97779.91;4962778;28;20050;-67
2021/12/25 06:44:02;;;;;;;17.67;11.20;;;;;;;4.29;81.08;97776.06;4958125;28;20039;-67
2021/12/25 06:46:28;;;;;;;19.25;11.52;;;;;;;4.28;81.28;97770.13;4962367;28;20039;-68
2021/12/25 06:48:53;;;;;;;16.63;11.43;;;;;;;4.29;81.18;97768.34;4976780;28;20035;-69
2021/12/25 06:51:19;;;;;;;16.85;11.70;;;;;;;4.33;81.19;97780.06;4961273;28;20734;-68
2021/12/25 06:53:44;;;;;;;17.10;11.80;;;;;;;4.08;81.74;97740.88;4956116;28;20053;-68
2021/12/25 06:56:10;;;;;;;17.65;11.88;;;;;;;4.04;81.80;97724.06;4972443;28;20034;-67
2021/12/25 06:58:35;;;;;;;16.73;11.60;;;;;;;4.33;81.94;97764.59;4961039;28;20034;-68
2021/12/25 07:01:01;;;;;;;17.23;11.93;;;;;;;4.43;81.15;97775.75;4956733;28;20031;-68
2021/12/25 07:03:27;;;;;;;18.05;12.30;;;;;;;4.32;81.75;97763.78;4970188;28;20050;-69
2021/12/25 07:05:52;;;;;;;15.48;11.93;;;;;;;4.09;81.94;97715.94;4970939;28;20058;-68
2021/12/25 07:08:17;;;;;;;15.88;11.32;;;;;;;4.42;82.18;97762.09;4963499;28;20033;-69
2021/12/25 07:10:43;;;;;;;16.48;12.10;;;;;;;4.43;81.87;97755.16;4973955;28;20022;-69
2021/12/25 07:13:15;;;;;;;17.95;11.80;;;;;;;4.47;82.06;97763.47;4970329;28;20031;-68
2021/12/25 07:15:41;;;;;;;16.98;12.05;;;;;;;4.50;82.80;97758.06;4936083;28;20509;-68
2021/12/25 07:18:06;;;;;;;16.73;11.50;;;;;;;4.56;82.50;97767.84;4952175;28;20035;-69
2021/12/25 07:20:32;;;;;;;18.48;12.13;;;;;;;4.27;82.20;97721.34;4956897;28;20038;-70
2021/12/25 07:22:57;;;;;;;18.38;11.77;;;;;;;4.55;81.84;97771.38;4952482;28;20113;-69
2021/12/25 07:25:24;;;;;;;16.80;11.70;;;;;;;4.55;82.50;97754.16;4958961;28;20035;-69
2021/12/25 07:27:50;;;;;;;16.92;11.68;;;;;;;4.57;81.65;97772.06;4972088;28;20430;-69
2021/12/25 07:30:15;;;;;;;16.38;11.30;;;;;;;4.29;82.42;97752.91;4973770;28;20031;-68
2021/12/25 07:32:41;;;;;;;15.25;11.52;;;;;;;4.24;83.25;97766.97;4956262;28;20512;-67
2021/12/25 07:35:06;;;;;;;17.33;12.95;;;;;;;4.17;83.56;97767.63;4959263;28;20038;-69
2021/12/25 07:37:33;;;;;;;18.73;12.32;;;;;;;4.18;83.22;97766.66;4955145;28;20144;-67
2021/12/25 07:40:00;;;;;;;17.10;12.23;;;;;;;4.13;82.73;97756.75;4944232;28;20043;-68
2021/12/25 07:42:26;;;;;;;15.85;11.93;;;;;;;4.26;82.38;97782.31;4958160;28;20035;-67
2021/12/25 07:44:55;;;;;;;17.25;12.25;;;;;;;4.28;82.73;97774.47;4937305;28;20031;-67
2021/12/25 07:47:22;;;;;;;17.70;12.27;;;;;;;4.28;82.60;97780.41;4941298;28;20120;-68
2021/12/25 07:49:48;;;;;;;18.85;12.50;;;;;;;4.10;82.48;97740.75;4940737;28;20061;-69
2021/12/25 07:52:13;;;;;;;18.15;12.75;;;;;;;4.36;82.27;97784.94;4956861;28;20027;-69
2021/12/25 07:54:39;;;;;;;19.50;13.95;;;;;;;4.36;82.88;97783.19;4940893;28;20402;-69
2021/12/25 07:57:04;;;;;;;19.65;13.02;;;;;;;4.40;83.27;97789.72;4955180;28;20038;-69
2021/12/25 07:59:29;;;;;;;18.67;12.80;;;;;;;4.45;82.30;97798.81;4953868;28;20041;-70
2021/12/25 08:01:56;;;;;;;17.85;13.20;;;;;;;4.33;82.16;97780.84;4956346;28;20034;-67
2021/12/25 08:04:22;;;;;;;20.70;13.60;;;;;;;4.28;82.84;97790.72;4964207;28;20035;-69
2021/12/25 08:06:47;;;;;;;19.75;14.05;;;;;;;3.93;83.10;97729.25;4938546;28;20031;-68
2021/12/25 08:09:13;;;;;;;19.23;14.13;;;;;;;4.23;82.99;97777.41;4954908;28;20039;-67
2021/12/25 08:11:38;;;;;;;20.40;14.77;;;;;;;3.94;83.32;97746.31;4954853;28;20488;-67
2021/12/25 08:14:03;;;;;;;21.25;14.38;;;;;;;4.21;83.44;97785.22;4969551;28;20019;-69
2021/12/25 08:16:29;;;;;;;19.40;14.52;;;;;;;4.24;82.49;97781.63;4957605;28;20023;-68
2021/12/25 08:18:54;;;;;;;20.05;14.23;;;;;;;3.99;82.93;97731.31;4961818;28;20042;-68
2021/12/25 08:21:20;;;;;;;20.88;14.57;;;;;;;4.28;82.69;97764.16;4947906;28;20582;-68
2021/12/25 08:23:45;;;;;;;20.05;14.23;;;;;;;4.22;83.04;97775.78;4955139;28;20452;-68
2021/12/25 08:26:10;;;;;;;19.40;14.35;;;;;;;4.26;83.13;97777.16;4956796;28;20041;-68
2021/12/25 08:28:36;;;;;;;20.58;14.20;;;;;;;4.22;82.98;97786.06;4962858;28;20037;-70
2021/12/25 08:31:02;;;;;;;20.40;15.38;;;;;;;4.22;82.71;97778.34;4971423;28;20042;-68
2021/12/25 08:33:27;;;;;;;21.42;16.17;;;;;;;4.27;82.51;97789.09;4941111;28;20093;-68
2021/12/25 08:35:53;;;;;;;23.27;17.55;;;;;;;4.28;82.40;97784.75;4975173;28;20568;-68
2021/12/25 08:38:18;;;;;;;21.63;16.60;;;;;;;4.34;82.18;97782.47;4936853;28;20022;-69
2021/12/25 08:40:44;;;;;;;23.48;17.17;;;;;;;4.45;82.00;97791.09;4968973;28;20043;-68
2021/12/25 08:43:10;;;;;;;20.58;16.13;;;;;;;4.39;82.61;97787.25;4956585;28;20031;-69
2021/12/25 08:48:03;;;;;;;23.90;17.45;;;;;;;4.49;81.68;97800.19;4955335;28;20074;-67
2021/12/25 08:50:28;;;;;;;30.05;20.02;;;;;;;4.49;81.43;97803.59;4943575;28;20077;-67
2021/12/25 08:52:54;;;;;;;31.50;20.75;;;;;;;4.52;81.77;97799.94;4975963;28;20031;-68
2021/12/25 08:55:19;;;;;;;27.80;19.42;;;;;;;4.58;81.90;97802.00;4935956;28;20038;-67
2021/12/25 08:57:45;;;;;;;23.38;17.85;;;;;;;4.52;82.05;97793.03;4953347;28;20114;-68
2021/12/25 09:00:11;;;;;;;20.98;16.65;;;;;;;4.66;80.85;97803.97;4976460;28;20441;-66
2021/12/25 09:02:37;;;;;;;23.35;17.42;;;;;;;4.76;81.29;97805.66;4971097;28;20572;-68
2021/12/25 09:05:03;;;;;;;22.10;16.52;;;;;;;4.80;80.17;97801.88;4970568;28;20015;-68
2021/12/25 09:07:29;;;;;;;23.02;16.40;;;;;;;4.56;80.03;97758.38;4978418;28;20031;-67
2021/12/25 09:09:54;;;;;;;21.73;16.75;;;;;;;4.94;79.64;97798.13;4959725;28;20038;-66
2021/12/25 09:12:21;;;;;;;20.90;16.48;;;;;;;5.00;80.15;97799.34;4957514;28;20042;-67
2021/12/25 09:14:46;;;;;;;21.60;16.20;;;;;;;4.75;79.92;97752.50;4944546;28;20023;-68
2021/12/25 09:17:13;;;;;;;24.17;17.92;;;;;;;4.71;79.31;97737.41;4959159;28;20035;-68
2021/12/25 09:19:39;;;;;;;21.30;16.38;;;;;;;5.05;79.35;97771.44;4937506;28;20057;-67
2021/12/25 09:22:08;;;;;;;22.30;16.38;;;;;;;4.94;80.22;97767.19;4954461;28;20031;-68
2021/12/25 09:24:34;;;;;;;22.73;16.70;;;;;;;4.93;80.44;97767.34;4968557;28;20129;-68
2021/12/25 09:26:59;;;;;;;21.95;16.10;;;;;;;4.83;80.59;97769.88;4955969;28;20057;-67
2021/12/25 09:29:25;;;;;;;19.45;15.10;;;;;;;4.89;81.15;97774.53;4959600;28;20112;-67
2021/12/25 09:31:50;;;;;;;19.33;15.45;;;;;;;4.99;80.65;97772.78;4952365;28;20507;-60
2021/12/25 09:34:16;;;;;;;20.63;15.35;;;;;;;5.09;80.40;97777.16;4957184;28;20047;-60
2021/12/25 09:36:41;;;;;;;22.30;15.75;;;;;;;5.19;79.61;97791.72;4958915;28;20289;-60
2021/12/25 09:39:07;;;;;;;20.58;15.65;;;;;;;5.24;79.70;97785.34;4955863;28;20045;-61
2021/12/25 09:41:33;;;;;;;23.02;16.83;;;;;;;5.24;79.91;97785.34;4975593;28;20027;-60
2021/12/25 09:44:00;;;;;;;25.30;18.98;;;;;;;5.26;79.88;97786.06;4953675;28;20141;-60
2021/12/25 09:46:25;;;;;;;22.27;17.45;;;;;;;5.38;79.11;97805.59;4955144;28;20058;-60
2021/12/25 09:48:51;;;;;;;20.98;16.83;;;;;;;5.46;78.53;97792.88;4968225;28;20129;-60
2021/12/25 09:51:19;;;;;;;20.00;15.82;;;;;;;5.33;77.68;97781.97;4980082;28;20206;-60
2021/12/25 09:54:01;;;;;;;19.63;15.00;;;;;;;5.53;77.28;97788.00;4959945;28;20497;-61
2021/12/25 09:56:28;;;;;;;18.13;13.77;;;;;;;5.46;77.24;97792.88;4962864;28;20023;-60
2021/12/25 09:58:54;;;;;;;19.20;13.57;;;;;;;5.16;76.70;97745.56;4964942;28;20074;-60
2021/12/25 10:01:45;;;;;;;25.95;17.75;;;;;;;5.39;76.91;97781.47;4973609;28;20598;-60
2021/12/25 10:04:28;;;;;;;21.83;15.93;;;;;;;5.19;78.24;97762.56;4962999;28;20093;-60
2021/12/25 10:06:53;;;;;;;21.35;15.07;;;;;;;5.38;78.13;97784.97;4943283;28;20038;-60
2021/12/25 10:09:23;;;;;;;20.40;15.35;;;;;;;5.45;77.92;97786.09;4977654;28;20038;-60
2021/12/25 10:15:19;;;;;;;17.55;12.15;;;;;;;5.35;78.05;97765.44;4951043;28;20513;-60
2021/12/25 10:17:54;;;;;;;17.92;13.10;;;;;;;5.30;78.44;97743.59;4904313;28;20034;-60
2021/12/25 10:20:26;;;;;;;17.08;12.52;;;;;;;5.48;78.94;97780.66;4951324;28;20039;-61
2021/12/25 10:23:22;;;;;;;19.00;13.25;;;;;;;5.55;78.70;97775.81;4952497;28;20030;-61
2021/12/25 10:26:43;;;;;;;18.90;14.05;;;;;;;5.59;78.68;97769.44;4961352;28;20110;-60
2021/12/25 10:29:15;;;;;;;17.00;12.73;;;;;;;5.65;78.20;97753.41;4957789;28;20078;-60
2021/12/25 10:31:40;;;;;;;16.38;12.30;;;;;;;5.48;77.17;97721.38;4955717;28;20035;-60
2021/12/25 10:34:18;;;;;;;17.40;12.20;;;;;;;5.39;76.73;97696.38;4945359;28;20037;-59
2021/12/25 10:36:43;;;;;;;17.88;12.60;;;;;;;5.67;77.76;97748.91;4972536;28;20085;-59
2021/12/25 10:39:12;;;;;;;17.95;12.75;;;;;;;5.30;78.31;97707.50;4961686;28;20027;-59
2021/12/25 10:41:56;;;;;;;17.92;13.13;;;;;;;5.54;78.73;97728.56;4945936;28;20473;-59
2021/12/25 10:44:28;;;;;;;16.90;12.20;;;;;;;5.62;77.79;97737.38;4958845;28;20175;-60
2021/12/25 10:46:55;;;;;;;17.55;12.95;;;;;;;5.42;78.15;97687.56;4943026;28;20035;-61
2021/12/25 10:49:22;;;;;;;14.82;11.77;;;;;;;5.30;77.78;97669.66;4881494;28;20492;-60
2021/12/25 10:51:48;;;;;;;15.85;12.73;;;;;;;5.71;77.57;97719.34;4960156;28;20050;-61
2021/12/25 10:54:16;;;;;;;17.65;12.88;;;;;;;5.64;78.20;97717.44;4977933;28;20070;-61
2021/12/25 11:00:07;;;;;;;16.15;12.20;;;;;;;5.36;77.53;97673.44;4944005;28;20057;-61
2021/12/25 11:02:37;;;;;;;17.30;12.00;;;;;;;5.54;78.54;97707.91;4957352;28;20027;-61
2021/12/25 11:05:22;;;;;;;17.02;12.00;;;;;;;5.57;78.36;97707.66;4969080;28;20035;-61
2021/12/25 11:08:01;;;;;;;17.35;11.90;;;;;;;5.63;78.75;97702.91;4956288;28;20039;-60
2021/12/25 11:10:26;;;;;;;18.35;12.85;;;;;;;5.65;78.84;97698.44;4974019;28;20030;-61
2021/12/25 11:12:52;;;;;;;15.23;10.35;;;;;;;5.59;76.93;97695.44;4956318;28;20455;-61
2021/12/25 11:15:21;;;;;;;17.05;11.23;;;;;;;5.61;76.99;97687.56;4958153;28;20385;-61
2021/12/25 11:17:52;;;;;;;14.82;9.88;;;;;;;5.65;77.85;97691.50;4969837;28;20019;-61
2021/12/25 11:20:33;;;;;;;15.02;10.57;;;;;;;5.64;77.29;97689.06;4970818;28;20035;-61
2021/12/25 11:23:01;;;;;;;14.25;10.05;;;;;;;5.72;76.54;97684.03;4957842;28;20110;-61
2021/12/25 11:25:29;;;;;;;15.70;10.68;;;;;;;5.68;77.67;97665.44;4964900;28;20031;-61
2021/12/25 11:27:56;;;;;;;14.02;10.30;;;;;;;5.40;78.41;97615.50;4944129;28;20037;-61
2021/12/25 11:30:23;;;;;;;17.02;11.88;;;;;;;5.56;79.52;97622.69;4974666;28;20114;-61
2021/12/25 11:32:50;;;;;;;15.40;10.98;;;;;;;5.77;80.16;97659.47;4955021;28;20038;-61
2021/12/25 11:35:16;;;;;;;17.92;12.07;;;;;;;5.75;80.48;97652.81;4967507;28;20031;-61
2021/12/25 11:37:42;;;;;;;16.52;12.07;;;;;;;5.71;80.82;97646.28;4954715;28;20065;-61
2021/12/25 11:40:10;;;;;;;15.50;11.32;;;;;;;5.68;79.25;97641.44;4955697;28;20154;-61
2021/12/25 11:42:40;;;;;;;16.83;12.05;;;;;;;5.69;80.27;97637.88;4927969;28;20039;-60
2021/12/25 11:45:21;;;;;;;17.42;11.63;;;;;;;5.66;80.38;97627.84;4953491;28;20193;-61
2021/12/25 11:47:51;;;;;;;17.10;11.80;;;;;;;5.77;80.06;97638.03;4959194;28;20035;-61
2021/12/25 11:50:30;;;;;;;19.55;11.55;;;;;;;5.93;78.23;97624.53;4972938;28;20030;-61
2021/12/25 11:53:24;;;;;;;16.10;11.93;;;;;;;5.93;79.44;97632.28;4962064;28;20057;-61
2021/12/25 11:58:51;;;;;;;16.17;11.52;;;;;;;6.02;78.13;97630.66;4941262;28;20038;-61
2021/12/25 12:01:19;;;;;;;15.80;11.30;;;;;;;5.78;77.59;97580.31;4955636;28;20611;-61
2021/12/25 12:03:52;;;;;;;19.48;12.27;;;;;;;6.05;77.77;97625.22;4959920;28;20043;-61
2021/12/25 12:06:18;;;;;;;18.80;12.63;;;;;;;5.90;77.27;97583.53;4955316;28;20038;-61
2021/12/25 12:08:52;;;;;;;18.33;13.27;;;;;;;6.14;76.71;97612.28;4965419;28;20038;-61
2021/12/25 12:11:26;;;;;;;17.25;12.90;;;;;;;6.08;77.24;97612.84;4964063;28;20022;-61
2021/12/25 12:14:18;;;;;;;18.65;12.77;;;;;;;6.14;76.78;97601.97;4899269;28;20033;-61
2021/12/25 12:16:45;;;;;;;16.90;12.48;;;;;;;6.13;76.31;97600.34;4949508;28;20019;-61
2021/12/25 12:19:33;;;;;;;16.58;11.85;;;;;;;6.11;75.60;97599.66;4955799;28;20097;-61
2021/12/25 12:22:18;;;;;;;17.40;12.73;;;;;;;6.12;75.29;97595.31;4957869;28;20488;-61
2021/12/25 12:25:13;;;;;;;17.55;13.07;;;;;;;6.25;75.01;97595.81;4962325;28;20054;-60
2021/12/25 12:28:10;;;;;;;18.08;13.52;;;;;;;6.18;74.66;97574.09;4961819;28;20082;-61
2021/12/25 12:30:37;;;;;;;19.02;13.45;;;;;;;6.22;74.34;97579.78;4906131;29;20132;-60
2021/12/25 12:33:24;;;;;;;17.67;13.93;;;;;;;6.21;74.56;97567.84;4947177;28;20097;-61
2021/12/25 12:35:51;;;;;;;21.63;15.38;;;;;;;6.20;74.41;97553.31;4957186;28;20034;-61
2021/12/25 12:38:23;;;;;;;22.45;17.52;;;;;;;6.26;74.28;97553.56;4972011;28;20031;-61
2021/12/25 12:41:21;;;;;;;23.02;16.88;;;;;;;6.24;74.48;97540.00;4960454;28;20043;-62
2021/12/25 12:43:50;;;;;;;21.55;15.68;;;;;;;6.10;74.37;97518.03;4961166;28;20070;-61
2021/12/25 12:46:16;;;;;;;17.33;14.00;;;;;;;6.07;74.94;97517.50;4963316;28;20539;-61
2021/12/25 12:49:01;;;;;;;20.77;15.70;;;;;;;6.34;74.92;97545.91;4944773;28;20019;-61
2021/12/25 12:51:27;;;;;;;25.92;20.00;;;;;;;6.31;74.89;97545.38;4939351;28;20170;-61
2021/12/25 12:53:52;;;;;;;29.05;20.08;;;;;;;6.10;73.97;97522.38;4961471;28;20102;-61
2021/12/25 12:56:21;;;;;;;27.45;20.25;;;;;;;6.42;73.55;97541.78;4958934;28;20434;-61
2021/12/25 12:58:57;;;;;;;26.95;20.15;;;;;;;6.37;74.18;97542.22;4976096;28;20492;-61
2021/12/25 13:01:25;;;;;;;26.17;19.42;;;;;;;6.30;73.90;97539.41;4959400;28;20322;-61
2021/12/25 13:04:01;;;;;;;26.30;20.15;;;;;;;6.32;74.30;97542.66;4954347;28;20086;-61